sensor_id;sensor_type;location;lat;lon;timestamp;P1;durP1;ratioP1;P2;durP2;ratioP2
18505;SDS011;9382;53.242;10.438;2023-05-07T00:00:18;11.30;;;8.33;;
18505;SDS011;9382;53.242;10.438;2023-05-07T00:02:46;10.60;;;8.73;;
18505;SDS011;9382;53.242;10.438;2023-05-07T00:05:13;11.17;;;8.80;;
18505;SDS011;9382;53.242;10.438;2023-05-07T00:07:40;10.60;;;9.07;;
18505;SDS011;9382;53.242;10.438;2023-05-07T00:10:07;12.20;;;9.00;;
18505;SDS011;9382;53.242;10.438;2023-05-07T00:12:34;12.27;;;8.93;;
18505;SDS011;9382;53.242;10.438;2023-05-07T00:15:01;11.17;;;8.63;;
18505;SDS011;9382;53.242;10.438;2023-05-07T00:17:28;13.37;;;9.73;;
18505;SDS011;9382;53.242;10.438;2023-05-07T00:19:57;10.60;;;8.60;;
18505;SDS011;9382;53.242;10.438;2023-05-07T00:22:23;10.63;;;8.63;;
18505;SDS011;9382;53.242;10.438;2023-05-07T00:24:50;9.73;;;8.20;;
18505;SDS011;9382;53.242;10.438;2023-05-07T00:27:16;13.27;;;9.13;;
18505;SDS011;9382;53.242;10.438;2023-05-07T00:29:43;9.27;;;8.27;;
18505;SDS011;9382;53.242;10.438;2023-05-07T00:32:10;9.80;;;8.43;;
18505;SDS011;9382;53.242;10.438;2023-05-07T00:34:36;9.90;;;8.60;;
18505;SDS011;9382;53.242;10.438;2023-05-07T00:37:05;11.20;;;8.47;;
18505;SDS011;9382;53.242;10.438;2023-05-07T00:39:33;10.33;;;9.23;;
18505;SDS011;9382;53.242;10.438;2023-05-07T00:42:00;10.90;;;8.37;;
18505;SDS011;9382;53.242;10.438;2023-05-07T00:44:27;10.03;;;8.57;;
18505;SDS011;9382;53.242;10.438;2023-05-07T00:46:54;9.77;;;8.50;;
18505;SDS011;9382;53.242;10.438;2023-05-07T00:49:22;10.30;;;8.50;;
18505;SDS011;9382;53.242;10.438;2023-05-07T00:51:52;11.23;;;9.07;;
18505;SDS011;9382;53.242;10.438;2023-05-07T00:54:21;10.43;;;8.53;;
18505;SDS011;9382;53.242;10.438;2023-05-07T00:56:48;9.83;;;8.60;;
18505;SDS011;9382;53.242;10.438;2023-05-07T00:59:14;13.43;;;8.97;;
18505;SDS011;9382;53.242;10.438;2023-05-07T01:01:41;11.03;;;8.90;;
18505;SDS011;9382;53.242;10.438;2023-05-07T01:04:08;9.63;;;8.27;;
18505;SDS011;9382;53.242;10.438;2023-05-07T01:06:34;12.13;;;9.23;;
18505;SDS011;9382;53.242;10.438;2023-05-07T01:09:01;11.77;;;9.50;;
18505;SDS011;9382;53.242;10.438;2023-05-07T01:11:30;11.47;;;9.53;;
18505;SDS011;9382;53.242;10.438;2023-05-07T01:13:57;10.37;;;8.97;;
18505;SDS011;9382;53.242;10.438;2023-05-07T01:16:26;12.33;;;9.33;;
18505;SDS011;9382;53.242;10.438;2023-05-07T01:18:52;12.50;;;9.20;;
18505;SDS011;9382;53.242;10.438;2023-05-07T01:21:19;11.87;;;9.63;;
18505;SDS011;9382;53.242;10.438;2023-05-07T01:23:54;12.13;;;9.67;;
18505;SDS011;9382;53.242;10.438;2023-05-07T01:26:22;11.57;;;9.20;;
18505;SDS011;9382;53.242;10.438;2023-05-07T01:28:49;12.57;;;10.00;;
18505;SDS011;9382;53.242;10.438;2023-05-07T01:31:16;11.33;;;9.40;;
18505;SDS011;9382;53.242;10.438;2023-05-07T01:33:43;12.87;;;10.10;;
18505;SDS011;9382;53.242;10.438;2023-05-07T01:36:11;11.03;;;9.17;;
18505;SDS011;9382;53.242;10.438;2023-05-07T01:38:40;10.07;;;8.57;;
18505;SDS011;9382;53.242;10.438;2023-05-07T01:41:09;10.97;;;9.03;;
18505;SDS011;9382;53.242;10.438;2023-05-07T01:43:37;11.70;;;9.73;;
18505;SDS011;9382;53.242;10.438;2023-05-07T01:46:04;12.90;;;10.23;;
18505;SDS011;9382;53.242;10.438;2023-05-07T01:48:31;10.00;;;8.93;;
18505;SDS011;9382;53.242;10.438;2023-05-07T01:50:59;13.40;;;10.00;;
18505;SDS011;9382;53.242;10.438;2023-05-07T01:53:27;13.00;;;10.60;;
18505;SDS011;9382;53.242;10.438;2023-05-07T01:55:54;12.57;;;10.10;;
18505;SDS011;9382;53.242;10.438;2023-05-07T01:58:22;14.40;;;10.73;;
18505;SDS011;9382;53.242;10.438;2023-05-07T02:00:48;12.83;;;10.13;;
18505;SDS011;9382;53.242;10.438;2023-05-07T02:03:15;13.40;;;10.97;;
18505;SDS011;9382;53.242;10.438;2023-05-07T02:05:42;14.33;;;10.90;;
18505;SDS011;9382;53.242;10.438;2023-05-07T02:08:18;13.47;;;10.30;;
18505;SDS011;9382;53.242;10.438;2023-05-07T02:10:45;14.60;;;10.80;;
18505;SDS011;9382;53.242;10.438;2023-05-07T02:13:12;15.37;;;11.47;;
18505;SDS011;9382;53.242;10.438;2023-05-07T02:15:40;13.83;;;10.63;;
18505;SDS011;9382;53.242;10.438;2023-05-07T02:18:07;13.07;;;10.70;;
18505;SDS011;9382;53.242;10.438;2023-05-07T02:20:34;14.53;;;11.17;;
18505;SDS011;9382;53.242;10.438;2023-05-07T02:23:01;13.80;;;10.37;;
18505;SDS011;9382;53.242;10.438;2023-05-07T02:25:28;12.00;;;10.27;;
18505;SDS011;9382;53.242;10.438;2023-05-07T02:27:55;13.77;;;10.97;;
18505;SDS011;9382;53.242;10.438;2023-05-07T02:30:21;14.43;;;11.00;;
18505;SDS011;9382;53.242;10.438;2023-05-07T02:32:50;15.33;;;11.40;;
18505;SDS011;9382;53.242;10.438;2023-05-07T02:35:16;14.70;;;11.30;;
18505;SDS011;9382;53.242;10.438;2023-05-07T02:37:43;14.83;;;11.10;;
18505;SDS011;9382;53.242;10.438;2023-05-07T02:40:10;14.17;;;10.87;;
18505;SDS011;9382;53.242;10.438;2023-05-07T02:42:37;14.20;;;10.80;;
18505;SDS011;9382;53.242;10.438;2023-05-07T02:45:04;14.33;;;10.70;;
18505;SDS011;9382;53.242;10.438;2023-05-07T02:47:32;15.63;;;10.90;;
18505;SDS011;9382;53.242;10.438;2023-05-07T02:50:00;15.97;;;11.30;;
18505;SDS011;9382;53.242;10.438;2023-05-07T02:52:26;15.13;;;12.20;;
18505;SDS011;9382;53.242;10.438;2023-05-07T02:54:53;14.77;;;11.67;;
18505;SDS011;9382;53.242;10.438;2023-05-07T02:57:20;17.03;;;12.10;;
18505;SDS011;9382;53.242;10.438;2023-05-07T02:59:46;13.30;;;10.63;;
18505;SDS011;9382;53.242;10.438;2023-05-07T03:02:13;14.53;;;11.07;;
18505;SDS011;9382;53.242;10.438;2023-05-07T03:04:40;13.57;;;10.63;;
18505;SDS011;9382;53.242;10.438;2023-05-07T03:07:08;12.90;;;10.63;;
18505;SDS011;9382;53.242;10.438;2023-05-07T03:09:34;14.73;;;10.90;;
18505;SDS011;9382;53.242;10.438;2023-05-07T03:12:01;13.53;;;10.67;;
18505;SDS011;9382;53.242;10.438;2023-05-07T03:14:27;14.90;;;11.30;;
18505;SDS011;9382;53.242;10.438;2023-05-07T03:16:55;14.80;;;11.30;;
18505;SDS011;9382;53.242;10.438;2023-05-07T03:19:21;13.30;;;10.67;;
18505;SDS011;9382;53.242;10.438;2023-05-07T03:21:48;14.57;;;11.50;;
18505;SDS011;9382;53.242;10.438;2023-05-07T03:24:16;15.43;;;11.47;;
18505;SDS011;9382;53.242;10.438;2023-05-07T03:26:42;15.77;;;11.70;;
18505;SDS011;9382;53.242;10.438;2023-05-07T03:29:09;14.53;;;11.00;;
18505;SDS011;9382;53.242;10.438;2023-05-07T03:31:36;15.40;;;11.50;;
18505;SDS011;9382;53.242;10.438;2023-05-07T03:34:02;14.43;;;11.30;;
18505;SDS011;9382;53.242;10.438;2023-05-07T03:36:30;14.10;;;11.00;;
18505;SDS011;9382;53.242;10.438;2023-05-07T03:38:56;14.00;;;11.10;;
18505;SDS011;9382;53.242;10.438;2023-05-07T03:41:24;14.30;;;10.93;;
18505;SDS011;9382;53.242;10.438;2023-05-07T03:43:51;15.27;;;11.80;;
18505;SDS011;9382;53.242;10.438;2023-05-07T03:46:18;14.03;;;10.57;;
18505;SDS011;9382;53.242;10.438;2023-05-07T03:48:44;15.93;;;11.70;;
18505;SDS011;9382;53.242;10.438;2023-05-07T03:51:11;14.73;;;11.07;;
18505;SDS011;9382;53.242;10.438;2023-05-07T03:53:38;14.47;;;11.23;;
18505;SDS011;9382;53.242;10.438;2023-05-07T03:56:04;15.73;;;11.60;;
18505;SDS011;9382;53.242;10.438;2023-05-07T03:58:32;15.27;;;10.77;;
18505;SDS011;9382;53.242;10.438;2023-05-07T04:00:59;16.10;;;11.43;;
18505;SDS011;9382;53.242;10.438;2023-05-07T04:03:26;15.57;;;11.30;;
18505;SDS011;9382;53.242;10.438;2023-05-07T04:05:53;16.63;;;10.80;;
18505;SDS011;9382;53.242;10.438;2023-05-07T04:08:19;16.00;;;11.47;;
18505;SDS011;9382;53.242;10.438;2023-05-07T04:10:46;15.40;;;11.20;;
18505;SDS011;9382;53.242;10.438;2023-05-07T04:13:13;15.80;;;10.87;;
18505;SDS011;9382;53.242;10.438;2023-05-07T04:15:40;15.93;;;11.47;;
18505;SDS011;9382;53.242;10.438;2023-05-07T04:18:07;15.90;;;11.93;;
18505;SDS011;9382;53.242;10.438;2023-05-07T04:20:35;14.87;;;10.90;;
18505;SDS011;9382;53.242;10.438;2023-05-07T04:23:02;15.67;;;11.43;;
18505;SDS011;9382;53.242;10.438;2023-05-07T04:25:28;16.83;;;11.57;;
18505;SDS011;9382;53.242;10.438;2023-05-07T04:27:55;16.50;;;11.63;;
18505;SDS011;9382;53.242;10.438;2023-05-07T04:30:22;15.73;;;11.40;;
18505;SDS011;9382;53.242;10.438;2023-05-07T04:32:50;15.87;;;11.57;;
18505;SDS011;9382;53.242;10.438;2023-05-07T04:35:17;16.23;;;11.87;;
18505;SDS011;9382;53.242;10.438;2023-05-07T04:37:43;16.20;;;11.30;;
18505;SDS011;9382;53.242;10.438;2023-05-07T04:40:10;14.77;;;10.70;;
18505;SDS011;9382;53.242;10.438;2023-05-07T04:42:37;14.80;;;11.00;;
18505;SDS011;9382;53.242;10.438;2023-05-07T04:45:04;15.10;;;10.73;;
18505;SDS011;9382;53.242;10.438;2023-05-07T04:47:31;16.07;;;10.97;;
18505;SDS011;9382;53.242;10.438;2023-05-07T04:49:59;16.60;;;11.37;;
18505;SDS011;9382;53.242;10.438;2023-05-07T04:52:26;17.63;;;10.70;;
18505;SDS011;9382;53.242;10.438;2023-05-07T04:54:53;18.23;;;11.47;;
18505;SDS011;9382;53.242;10.438;2023-05-07T04:57:19;16.33;;;11.47;;
18505;SDS011;9382;53.242;10.438;2023-05-07T04:59:46;14.70;;;10.97;;
18505;SDS011;9382;53.242;10.438;2023-05-07T05:02:12;13.20;;;9.97;;
18505;SDS011;9382;53.242;10.438;2023-05-07T05:04:39;14.23;;;10.77;;
18505;SDS011;9382;53.242;10.438;2023-05-07T05:07:07;13.77;;;10.10;;
18505;SDS011;9382;53.242;10.438;2023-05-07T05:09:33;12.33;;;9.83;;
18505;SDS011;9382;53.242;10.438;2023-05-07T05:12:00;14.50;;;10.37;;
18505;SDS011;9382;53.242;10.438;2023-05-07T05:14:27;12.77;;;10.03;;
18505;SDS011;9382;53.242;10.438;2023-05-07T05:16:53;13.23;;;10.03;;
18505;SDS011;9382;53.242;10.438;2023-05-07T05:19:20;13.70;;;9.40;;
18505;SDS011;9382;53.242;10.438;2023-05-07T05:21:47;12.33;;;9.70;;
18505;SDS011;9382;53.242;10.438;2023-05-07T05:24:14;13.50;;;10.30;;
18505;SDS011;9382;53.242;10.438;2023-05-07T05:26:41;15.87;;;10.90;;
18505;SDS011;9382;53.242;10.438;2023-05-07T05:29:08;14.43;;;9.83;;
18505;SDS011;9382;53.242;10.438;2023-05-07T05:31:35;12.03;;;9.60;;
18505;SDS011;9382;53.242;10.438;2023-05-07T05:34:02;14.60;;;10.27;;
18505;SDS011;9382;53.242;10.438;2023-05-07T05:36:28;12.97;;;9.60;;
18505;SDS011;9382;53.242;10.438;2023-05-07T05:38:55;12.33;;;9.10;;
18505;SDS011;9382;53.242;10.438;2023-05-07T05:41:23;13.13;;;9.93;;
18505;SDS011;9382;53.242;10.438;2023-05-07T05:43:50;11.40;;;8.87;;
18505;SDS011;9382;53.242;10.438;2023-05-07T05:46:16;12.37;;;9.17;;
18505;SDS011;9382;53.242;10.438;2023-05-07T05:48:43;12.47;;;9.30;;
18505;SDS011;9382;53.242;10.438;2023-05-07T05:51:10;14.00;;;9.80;;
18505;SDS011;9382;53.242;10.438;2023-05-07T05:53:36;13.40;;;9.77;;
18505;SDS011;9382;53.242;10.438;2023-05-07T05:56:03;12.67;;;9.50;;
18505;SDS011;9382;53.242;10.438;2023-05-07T05:58:31;14.27;;;9.70;;
18505;SDS011;9382;53.242;10.438;2023-05-07T06:00:58;13.50;;;9.90;;
18505;SDS011;9382;53.242;10.438;2023-05-07T06:03:27;14.40;;;10.20;;
18505;SDS011;9382;53.242;10.438;2023-05-07T06:05:54;13.57;;;9.57;;
18505;SDS011;9382;53.242;10.438;2023-05-07T06:08:20;14.63;;;9.43;;
18505;SDS011;9382;53.242;10.438;2023-05-07T06:10:47;13.53;;;10.30;;
18505;SDS011;9382;53.242;10.438;2023-05-07T06:13:14;12.97;;;10.00;;
18505;SDS011;9382;53.242;10.438;2023-05-07T06:15:42;14.27;;;10.10;;
18505;SDS011;9382;53.242;10.438;2023-05-07T06:18:08;12.53;;;9.70;;
18505;SDS011;9382;53.242;10.438;2023-05-07T06:20:44;13.77;;;9.60;;
18505;SDS011;9382;53.242;10.438;2023-05-07T06:23:10;13.80;;;9.63;;
18505;SDS011;9382;53.242;10.438;2023-05-07T06:25:37;13.03;;;9.07;;
18505;SDS011;9382;53.242;10.438;2023-05-07T06:28:04;12.53;;;8.97;;
18505;SDS011;9382;53.242;10.438;2023-05-07T06:30:33;11.67;;;9.17;;
18505;SDS011;9382;53.242;10.438;2023-05-07T06:33:01;11.17;;;8.33;;
18505;SDS011;9382;53.242;10.438;2023-05-07T06:35:28;10.87;;;8.40;;
18505;SDS011;9382;53.242;10.438;2023-05-07T06:37:55;9.97;;;7.83;;
18505;SDS011;9382;53.242;10.438;2023-05-07T06:40:21;11.70;;;8.20;;
18505;SDS011;9382;53.242;10.438;2023-05-07T06:42:48;12.17;;;8.30;;
18505;SDS011;9382;53.242;10.438;2023-05-07T06:45:15;9.87;;;7.83;;
18505;SDS011;9382;53.242;10.438;2023-05-07T06:47:41;12.47;;;8.93;;
18505;SDS011;9382;53.242;10.438;2023-05-07T06:50:09;10.87;;;8.20;;
18505;SDS011;9382;53.242;10.438;2023-05-07T06:52:36;12.13;;;8.33;;
18505;SDS011;9382;53.242;10.438;2023-05-07T06:55:03;10.23;;;8.23;;
18505;SDS011;9382;53.242;10.438;2023-05-07T06:57:31;10.63;;;8.20;;
18505;SDS011;9382;53.242;10.438;2023-05-07T06:59:57;10.43;;;8.53;;
18505;SDS011;9382;53.242;10.438;2023-05-07T07:02:24;10.97;;;7.80;;
18505;SDS011;9382;53.242;10.438;2023-05-07T07:04:51;9.63;;;7.63;;
18505;SDS011;9382;53.242;10.438;2023-05-07T07:07:26;10.17;;;8.00;;
18505;SDS011;9382;53.242;10.438;2023-05-07T07:09:53;9.53;;;7.57;;
18505;SDS011;9382;53.242;10.438;2023-05-07T07:12:20;8.73;;;7.33;;
18505;SDS011;9382;53.242;10.438;2023-05-07T07:14:47;10.23;;;7.67;;
18505;SDS011;9382;53.242;10.438;2023-05-07T07:17:14;10.37;;;6.90;;
18505;SDS011;9382;53.242;10.438;2023-05-07T07:19:41;9.97;;;7.70;;
18505;SDS011;9382;53.242;10.438;2023-05-07T07:22:07;11.10;;;7.97;;
18505;SDS011;9382;53.242;10.438;2023-05-07T07:24:35;9.87;;;7.57;;
18505;SDS011;9382;53.242;10.438;2023-05-07T07:27:02;9.60;;;7.17;;
18505;SDS011;9382;53.242;10.438;2023-05-07T07:29:29;8.17;;;7.23;;
18505;SDS011;9382;53.242;10.438;2023-05-07T07:31:56;8.57;;;6.90;;
18505;SDS011;9382;53.242;10.438;2023-05-07T07:34:23;9.23;;;7.37;;
18505;SDS011;9382;53.242;10.438;2023-05-07T07:36:50;8.47;;;6.73;;
18505;SDS011;9382;53.242;10.438;2023-05-07T07:39:16;11.17;;;7.87;;
18505;SDS011;9382;53.242;10.438;2023-05-07T07:41:45;8.10;;;6.73;;
18505;SDS011;9382;53.242;10.438;2023-05-07T07:44:11;8.40;;;6.20;;
18505;SDS011;9382;53.242;10.438;2023-05-07T07:46:38;7.37;;;6.17;;
18505;SDS011;9382;53.242;10.438;2023-05-07T07:49:05;7.07;;;6.33;;
18505;SDS011;9382;53.242;10.438;2023-05-07T07:51:31;7.93;;;6.73;;
18505;SDS011;9382;53.242;10.438;2023-05-07T07:53:58;7.57;;;6.77;;
18505;SDS011;9382;53.242;10.438;2023-05-07T07:56:27;9.13;;;6.60;;
18505;SDS011;9382;53.242;10.438;2023-05-07T07:58:55;8.33;;;6.27;;
18505;SDS011;9382;53.242;10.438;2023-05-07T08:01:22;7.80;;;7.00;;
18505;SDS011;9382;53.242;10.438;2023-05-07T08:03:49;8.67;;;7.33;;
18505;SDS011;9382;53.242;10.438;2023-05-07T08:06:15;10.23;;;7.20;;
18505;SDS011;9382;53.242;10.438;2023-05-07T08:08:42;10.63;;;7.93;;
18505;SDS011;9382;53.242;10.438;2023-05-07T08:11:09;9.60;;;7.90;;
18505;SDS011;9382;53.242;10.438;2023-05-07T08:13:36;10.77;;;8.07;;
18505;SDS011;9382;53.242;10.438;2023-05-07T08:16:06;8.90;;;7.53;;
18505;SDS011;9382;53.242;10.438;2023-05-07T08:18:33;9.97;;;8.00;;
18505;SDS011;9382;53.242;10.438;2023-05-07T08:21:00;10.43;;;8.07;;
18505;SDS011;9382;53.242;10.438;2023-05-07T08:23:27;11.73;;;8.07;;
18505;SDS011;9382;53.242;10.438;2023-05-07T08:25:53;10.20;;;7.63;;
18505;SDS011;9382;53.242;10.438;2023-05-07T08:28:20;10.00;;;8.70;;
18505;SDS011;9382;53.242;10.438;2023-05-07T08:30:49;8.90;;;7.47;;
18505;SDS011;9382;53.242;10.438;2023-05-07T08:33:17;10.77;;;9.30;;
18505;SDS011;9382;53.242;10.438;2023-05-07T08:35:44;11.60;;;8.40;;
18505;SDS011;9382;53.242;10.438;2023-05-07T08:38:11;11.73;;;8.90;;
18505;SDS011;9382;53.242;10.438;2023-05-07T08:40:38;11.23;;;7.67;;
18505;SDS011;9382;53.242;10.438;2023-05-07T08:43:05;9.77;;;7.93;;
18505;SDS011;9382;53.242;10.438;2023-05-07T08:45:33;9.27;;;8.10;;
18505;SDS011;9382;53.242;10.438;2023-05-07T08:48:01;10.77;;;8.80;;
18505;SDS011;9382;53.242;10.438;2023-05-07T08:50:30;11.67;;;8.17;;
18505;SDS011;9382;53.242;10.438;2023-05-07T08:52:57;10.40;;;8.30;;
18505;SDS011;9382;53.242;10.438;2023-05-07T08:55:25;10.13;;;8.00;;
18505;SDS011;9382;53.242;10.438;2023-05-07T08:57:51;10.63;;;8.17;;
18505;SDS011;9382;53.242;10.438;2023-05-07T09:00:18;10.90;;;8.13;;
18505;SDS011;9382;53.242;10.438;2023-05-07T09:02:45;9.13;;;7.57;;
18505;SDS011;9382;53.242;10.438;2023-05-07T09:05:12;10.77;;;7.60;;
18505;SDS011;9382;53.242;10.438;2023-05-07T09:07:40;11.10;;;8.13;;
18505;SDS011;9382;53.242;10.438;2023-05-07T09:10:07;9.67;;;7.90;;
18505;SDS011;9382;53.242;10.438;2023-05-07T09:12:35;9.80;;;7.77;;
18505;SDS011;9382;53.242;10.438;2023-05-07T09:15:01;10.43;;;8.07;;
18505;SDS011;9382;53.242;10.438;2023-05-07T09:17:29;10.83;;;8.50;;
18505;SDS011;9382;53.242;10.438;2023-05-07T09:19:55;10.17;;;8.33;;
18505;SDS011;9382;53.242;10.438;2023-05-07T09:22:22;12.43;;;8.63;;
18505;SDS011;9382;53.242;10.438;2023-05-07T09:24:51;11.23;;;8.23;;
18505;SDS011;9382;53.242;10.438;2023-05-07T09:27:18;10.60;;;8.00;;
18505;SDS011;9382;53.242;10.438;2023-05-07T09:29:45;9.97;;;8.00;;
18505;SDS011;9382;53.242;10.438;2023-05-07T09:32:12;11.00;;;8.30;;
18505;SDS011;9382;53.242;10.438;2023-05-07T09:34:41;11.60;;;8.17;;
18505;SDS011;9382;53.242;10.438;2023-05-07T09:37:08;9.93;;;8.23;;
18505;SDS011;9382;53.242;10.438;2023-05-07T09:39:41;11.27;;;8.53;;
18505;SDS011;9382;53.242;10.438;2023-05-07T09:42:09;11.00;;;8.07;;
18505;SDS011;9382;53.242;10.438;2023-05-07T09:44:37;11.00;;;8.33;;
18505;SDS011;9382;53.242;10.438;2023-05-07T09:47:05;8.53;;;7.33;;
18505;SDS011;9382;53.242;10.438;2023-05-07T09:49:34;10.20;;;8.13;;
18505;SDS011;9382;53.242;10.438;2023-05-07T09:52:02;9.57;;;7.93;;
18505;SDS011;9382;53.242;10.438;2023-05-07T09:54:31;8.23;;;7.37;;
18505;SDS011;9382;53.242;10.438;2023-05-07T09:56:59;9.23;;;7.80;;
18505;SDS011;9382;53.242;10.438;2023-05-07T09:59:29;9.43;;;7.43;;
18505;SDS011;9382;53.242;10.438;2023-05-07T10:01:58;8.90;;;7.13;;
18505;SDS011;9382;53.242;10.438;2023-05-07T10:04:26;10.90;;;7.70;;
18505;SDS011;9382;53.242;10.438;2023-05-07T10:06:53;8.87;;;7.30;;
18505;SDS011;9382;53.242;10.438;2023-05-07T10:09:20;8.27;;;7.00;;
18505;SDS011;9382;53.242;10.438;2023-05-07T10:11:47;8.57;;;7.27;;
18505;SDS011;9382;53.242;10.438;2023-05-07T10:14:15;10.37;;;7.30;;
18505;SDS011;9382;53.242;10.438;2023-05-07T10:16:43;12.07;;;7.97;;
18505;SDS011;9382;53.242;10.438;2023-05-07T10:19:10;10.80;;;7.50;;
18505;SDS011;9382;53.242;10.438;2023-05-07T10:21:37;9.60;;;7.53;;
18505;SDS011;9382;53.242;10.438;2023-05-07T10:24:09;8.63;;;7.13;;
18505;SDS011;9382;53.242;10.438;2023-05-07T10:26:39;9.43;;;7.50;;
18505;SDS011;9382;53.242;10.438;2023-05-07T10:29:11;8.27;;;7.37;;
18505;SDS011;9382;53.242;10.438;2023-05-07T10:31:52;10.13;;;7.33;;
18505;SDS011;9382;53.242;10.438;2023-05-07T10:34:26;10.33;;;6.63;;
18505;SDS011;9382;53.242;10.438;2023-05-07T10:36:55;10.73;;;7.53;;
18505;SDS011;9382;53.242;10.438;2023-05-07T10:39:22;7.80;;;6.70;;
18505;SDS011;9382;53.242;10.438;2023-05-07T10:41:49;7.50;;;6.63;;
18505;SDS011;9382;53.242;10.438;2023-05-07T10:44:24;11.20;;;7.40;;
18505;SDS011;9382;53.242;10.438;2023-05-07T10:47:07;9.07;;;6.80;;
18505;SDS011;9382;53.242;10.438;2023-05-07T10:49:35;8.13;;;6.90;;
18505;SDS011;9382;53.242;10.438;2023-05-07T10:52:12;7.13;;;6.43;;
18505;SDS011;9382;53.242;10.438;2023-05-07T10:54:40;9.33;;;6.93;;
18505;SDS011;9382;53.242;10.438;2023-05-07T11:00:13;8.77;;;6.80;;
18505;SDS011;9382;53.242;10.438;2023-05-07T11:03:08;8.53;;;6.70;;
18505;SDS011;9382;53.242;10.438;2023-05-07T11:05:35;8.17;;;6.50;;
18505;SDS011;9382;53.242;10.438;2023-05-07T11:08:03;7.90;;;6.27;;
18505;SDS011;9382;53.242;10.438;2023-05-07T11:10:50;7.97;;;6.50;;
18505;SDS011;9382;53.242;10.438;2023-05-07T11:13:18;7.53;;;6.17;;
18505;SDS011;9382;53.242;10.438;2023-05-07T11:16:15;6.97;;;6.20;;
18505;SDS011;9382;53.242;10.438;2023-05-07T11:18:48;7.10;;;5.63;;
18505;SDS011;9382;53.242;10.438;2023-05-07T11:21:31;7.80;;;6.43;;
18505;SDS011;9382;53.242;10.438;2023-05-07T11:23:59;7.97;;;6.13;;
18505;SDS011;9382;53.242;10.438;2023-05-07T11:26:27;6.77;;;5.60;;
18505;SDS011;9382;53.242;10.438;2023-05-07T11:28:56;6.50;;;5.50;;
18505;SDS011;9382;53.242;10.438;2023-05-07T11:31:25;7.13;;;5.40;;
18505;SDS011;9382;53.242;10.438;2023-05-07T11:33:56;7.70;;;5.10;;
18505;SDS011;9382;53.242;10.438;2023-05-07T11:36:23;5.90;;;5.23;;
18505;SDS011;9382;53.242;10.438;2023-05-07T11:38:50;5.93;;;4.93;;
18505;SDS011;9382;53.242;10.438;2023-05-07T11:41:17;6.63;;;4.63;;
18505;SDS011;9382;53.242;10.438;2023-05-07T11:43:53;7.63;;;4.83;;
18505;SDS011;9382;53.242;10.438;2023-05-07T11:46:21;4.87;;;4.30;;
18505;SDS011;9382;53.242;10.438;2023-05-07T11:48:48;5.70;;;4.67;;
18505;SDS011;9382;53.242;10.438;2023-05-07T11:51:19;6.40;;;4.80;;
18505;SDS011;9382;53.242;10.438;2023-05-07T11:53:47;4.30;;;4.00;;
18505;SDS011;9382;53.242;10.438;2023-05-07T11:56:14;4.57;;;4.17;;
18505;SDS011;9382;53.242;10.438;2023-05-07T11:58:42;5.00;;;4.17;;
18505;SDS011;9382;53.242;10.438;2023-05-07T12:01:10;4.70;;;4.30;;
18505;SDS011;9382;53.242;10.438;2023-05-07T12:03:39;5.43;;;4.00;;
18505;SDS011;9382;53.242;10.438;2023-05-07T12:06:08;5.33;;;4.60;;
18505;SDS011;9382;53.242;10.438;2023-05-07T12:08:37;6.33;;;4.50;;
18505;SDS011;9382;53.242;10.438;2023-05-07T12:11:06;6.00;;;4.00;;
18505;SDS011;9382;53.242;10.438;2023-05-07T12:13:34;6.30;;;4.37;;
18505;SDS011;9382;53.242;10.438;2023-05-07T12:16:01;4.60;;;4.10;;
18505;SDS011;9382;53.242;10.438;2023-05-07T12:18:30;4.70;;;4.10;;
18505;SDS011;9382;53.242;10.438;2023-05-07T12:20:57;7.37;;;4.13;;
18505;SDS011;9382;53.242;10.438;2023-05-07T12:23:24;5.17;;;4.30;;
18505;SDS011;9382;53.242;10.438;2023-05-07T12:25:53;4.27;;;3.90;;
18505;SDS011;9382;53.242;10.438;2023-05-07T12:28:20;3.80;;;3.50;;
18505;SDS011;9382;53.242;10.438;2023-05-07T12:30:47;3.87;;;3.57;;
18505;SDS011;9382;53.242;10.438;2023-05-07T12:33:16;3.77;;;3.50;;
18505;SDS011;9382;53.242;10.438;2023-05-07T12:35:44;4.33;;;3.93;;
18505;SDS011;9382;53.242;10.438;2023-05-07T12:38:11;4.33;;;3.93;;
18505;SDS011;9382;53.242;10.438;2023-05-07T12:40:39;4.13;;;3.40;;
18505;SDS011;9382;53.242;10.438;2023-05-07T12:43:09;3.80;;;3.33;;
18505;SDS011;9382;53.242;10.438;2023-05-07T12:45:42;3.47;;;3.17;;
18505;SDS011;9382;53.242;10.438;2023-05-07T12:48:09;4.20;;;3.50;;
18505;SDS011;9382;53.242;10.438;2023-05-07T12:50:36;3.67;;;3.37;;
18505;SDS011;9382;53.242;10.438;2023-05-07T12:53:03;3.67;;;3.30;;
18505;SDS011;9382;53.242;10.438;2023-05-07T12:55:31;3.00;;;2.80;;
18505;SDS011;9382;53.242;10.438;2023-05-07T12:58:00;3.23;;;2.93;;
18505;SDS011;9382;53.242;10.438;2023-05-07T13:00:35;3.73;;;3.00;;
18505;SDS011;9382;53.242;10.438;2023-05-07T13:03:02;2.90;;;2.70;;
18505;SDS011;9382;53.242;10.438;2023-05-07T13:05:29;3.20;;;2.90;;
18505;SDS011;9382;53.242;10.438;2023-05-07T13:07:57;4.07;;;2.67;;
18505;SDS011;9382;53.242;10.438;2023-05-07T13:10:24;3.27;;;2.90;;
18505;SDS011;9382;53.242;10.438;2023-05-07T13:12:51;3.00;;;2.70;;
18505;SDS011;9382;53.242;10.438;2023-05-07T13:15:18;2.70;;;2.50;;
18505;SDS011;9382;53.242;10.438;2023-05-07T13:17:47;2.60;;;2.40;;
18505;SDS011;9382;53.242;10.438;2023-05-07T13:20:13;2.60;;;2.40;;
18505;SDS011;9382;53.242;10.438;2023-05-07T13:22:40;2.50;;;2.33;;
18505;SDS011;9382;53.242;10.438;2023-05-07T13:25:07;6.20;;;2.90;;
18505;SDS011;9382;53.242;10.438;2023-05-07T13:27:34;2.60;;;2.40;;
18505;SDS011;9382;53.242;10.438;2023-05-07T13:30:01;2.40;;;2.30;;
18505;SDS011;9382;53.242;10.438;2023-05-07T13:32:29;2.20;;;2.10;;
18505;SDS011;9382;53.242;10.438;2023-05-07T13:34:57;2.70;;;2.13;;
18505;SDS011;9382;53.242;10.438;2023-05-07T13:37:24;2.40;;;2.20;;
18505;SDS011;9382;53.242;10.438;2023-05-07T13:39:51;2.07;;;1.97;;
18505;SDS011;9382;53.242;10.438;2023-05-07T13:42:17;2.47;;;2.27;;
18505;SDS011;9382;53.242;10.438;2023-05-07T13:44:44;2.60;;;2.43;;
18505;SDS011;9382;53.242;10.438;2023-05-07T13:47:11;2.53;;;2.30;;
18505;SDS011;9382;53.242;10.438;2023-05-07T13:49:37;2.27;;;2.17;;
18505;SDS011;9382;53.242;10.438;2023-05-07T13:52:05;2.97;;;2.03;;
18505;SDS011;9382;53.242;10.438;2023-05-07T13:54:32;2.70;;;2.30;;
18505;SDS011;9382;53.242;10.438;2023-05-07T13:56:59;2.20;;;2.10;;
18505;SDS011;9382;53.242;10.438;2023-05-07T13:59:26;2.40;;;2.30;;
18505;SDS011;9382;53.242;10.438;2023-05-07T14:01:53;2.37;;;2.10;;
18505;SDS011;9382;53.242;10.438;2023-05-07T14:04:20;2.50;;;2.30;;
18505;SDS011;9382;53.242;10.438;2023-05-07T14:06:47;2.80;;;2.30;;
18505;SDS011;9382;53.242;10.438;2023-05-07T14:09:15;2.20;;;2.10;;
18505;SDS011;9382;53.242;10.438;2023-05-07T14:11:42;2.50;;;2.30;;
18505;SDS011;9382;53.242;10.438;2023-05-07T14:14:09;2.57;;;2.30;;
18505;SDS011;9382;53.242;10.438;2023-05-07T14:16:36;2.53;;;2.20;;
18505;SDS011;9382;53.242;10.438;2023-05-07T14:19:03;2.40;;;2.20;;
18505;SDS011;9382;53.242;10.438;2023-05-07T14:21:30;2.50;;;2.30;;
18505;SDS011;9382;53.242;10.438;2023-05-07T14:23:56;2.53;;;2.30;;
18505;SDS011;9382;53.242;10.438;2023-05-07T14:26:26;2.20;;;2.10;;
18505;SDS011;9382;53.242;10.438;2023-05-07T14:28:53;2.73;;;2.53;;
18505;SDS011;9382;53.242;10.438;2023-05-07T14:31:22;5.47;;;2.10;;
18505;SDS011;9382;53.242;10.438;2023-05-07T14:33:49;2.70;;;2.10;;
18505;SDS011;9382;53.242;10.438;2023-05-07T14:36:15;2.10;;;2.00;;
18505;SDS011;9382;53.242;10.438;2023-05-07T14:38:42;3.00;;;2.20;;
18505;SDS011;9382;53.242;10.438;2023-05-07T14:41:09;2.27;;;2.07;;